createdAt,value
2018-07-15T00:00:26.461Z,17.30
2018-07-15T00:02:54.618Z,17.20
2018-07-15T00:05:22.731Z,17.20
2018-07-15T00:07:50.875Z,17.20
2018-07-15T00:10:19.577Z,17.10
2018-07-15T00:12:47.689Z,17.00
2018-07-15T00:15:15.814Z,17.00
2018-07-15T00:17:43.941Z,17.00
2018-07-15T00:20:12.071Z,16.90
2018-07-15T00:22:40.214Z,16.90
2018-07-15T00:25:08.333Z,16.90
2018-07-15T00:27:36.457Z,16.90
2018-07-15T00:30:04.769Z,16.80
2018-07-15T00:32:32.910Z,16.70
2018-07-15T00:35:01.034Z,16.60
2018-07-15T00:37:29.158Z,16.60
2018-07-15T00:39:57.319Z,16.50
2018-07-15T00:42:25.402Z,16.50
2018-07-15T00:44:53.544Z,16.50
2018-07-15T00:47:21.677Z,16.50
2018-07-15T00:49:49.806Z,16.40
2018-07-15T00:52:17.922Z,16.40
2018-07-15T00:54:46.057Z,16.30
2018-07-15T00:57:14.188Z,16.30
2018-07-15T00:59:42.321Z,16.20
2018-07-15T01:02:10.437Z,16.10
2018-07-15T01:04:38.573Z,16.00
2018-07-15T01:07:06.702Z,16.00
2018-07-15T01:09:34.837Z,16.00
2018-07-15T01:12:02.965Z,16.00
2018-07-15T01:14:31.081Z,16.00
2018-07-15T01:16:59.228Z,16.00
2018-07-15T01:19:27.353Z,16.10
2018-07-15T01:21:55.488Z,16.30
2018-07-15T01:24:23.618Z,16.30
2018-07-15T01:26:51.780Z,16.20
2018-07-15T01:29:19.898Z,16.30
2018-07-15T01:31:48.025Z,16.10
2018-07-15T01:34:16.149Z,16.10
2018-07-15T01:36:44.273Z,16.00
2018-07-15T01:39:12.401Z,15.90
2018-07-15T01:41:40.529Z,16.00
2018-07-15T01:44:08.645Z,15.90
2018-07-15T01:46:37.389Z,15.90
2018-07-15T01:49:05.663Z,15.90
2018-07-15T01:51:33.786Z,15.90
2018-07-15T01:54:02.290Z,15.90
2018-07-15T01:56:30.473Z,15.90
2018-07-15T01:58:58.584Z,15.90
2018-07-15T02:01:26.720Z,15.90
2018-07-15T02:03:54.853Z,15.90
2018-07-15T02:06:23.515Z,15.90
2018-07-15T02:08:51.951Z,15.90
2018-07-15T02:11:20.081Z,15.90
2018-07-15T02:13:48.674Z,15.80
2018-07-15T02:16:16.817Z,15.90
2018-07-15T02:18:44.938Z,15.90
2018-07-15T02:23:40.978Z,15.80
2018-07-15T02:26:09.114Z,15.80
2018-07-15T02:28:37.253Z,15.70
2018-07-15T02:31:05.399Z,15.70
2018-07-15T02:33:33.526Z,15.70
2018-07-15T02:36:01.683Z,15.80
2018-07-15T02:38:29.793Z,15.70
2018-07-15T02:40:58.032Z,15.70
2018-07-15T02:43:26.274Z,15.70
2018-07-15T02:45:54.397Z,15.60
2018-07-15T02:48:22.529Z,15.60
2018-07-15T02:50:50.660Z,15.60
2018-07-15T02:53:18.799Z,15.50
2018-07-15T02:55:46.937Z,15.50
2018-07-15T02:58:15.082Z,15.40
2018-07-15T03:00:43.210Z,15.40
2018-07-15T03:03:11.353Z,15.40
2018-07-15T03:05:39.501Z,15.30
2018-07-15T03:08:07.637Z,15.30
2018-07-15T03:10:35.772Z,15.30
2018-07-15T03:13:03.914Z,15.30
2018-07-15T03:15:32.059Z,15.30
2018-07-15T03:18:00.215Z,15.40
2018-07-15T03:20:28.361Z,15.50
2018-07-15T03:22:56.495Z,15.50
2018-07-15T03:25:24.641Z,15.50
2018-07-15T03:27:52.782Z,15.50
2018-07-15T03:30:20.925Z,15.50
2018-07-15T03:32:49.053Z,15.40
2018-07-15T03:35:17.190Z,15.30
2018-07-15T03:37:45.317Z,15.30
2018-07-15T03:40:13.462Z,15.30
2018-07-15T03:42:41.614Z,15.30
2018-07-15T03:45:09.744Z,15.30
2018-07-15T03:47:37.888Z,15.40
2018-07-15T03:50:06.034Z,15.60
2018-07-15T03:52:34.180Z,15.60
2018-07-15T03:55:02.317Z,15.70
2018-07-15T03:57:30.509Z,15.70
2018-07-15T03:59:58.655Z,15.70
2018-07-15T04:02:26.810Z,15.70
2018-07-15T04:04:54.957Z,15.70
2018-07-15T04:07:23.109Z,15.80
2018-07-15T04:09:51.241Z,15.90
2018-07-15T04:12:19.639Z,15.90
2018-07-15T04:14:47.829Z,15.90
2018-07-15T04:17:15.977Z,16.00
2018-07-15T04:19:44.112Z,16.00
2018-07-15T04:22:12.286Z,16.00
2018-07-15T04:24:40.429Z,15.90
2018-07-15T04:27:08.572Z,16.00
2018-07-15T04:29:36.726Z,16.10
2018-07-15T04:32:04.972Z,16.20
2018-07-15T04:34:33.121Z,16.40
2018-07-15T04:37:01.243Z,16.60
2018-07-15T04:39:29.438Z,16.70
2018-07-15T04:41:57.574Z,16.80
2018-07-15T04:44:25.713Z,16.80
2018-07-15T04:46:53.841Z,17.00
2018-07-15T04:49:25.039Z,17.50
2018-07-15T04:51:54.224Z,17.80
2018-07-15T04:54:22.405Z,17.80
2018-07-15T04:56:50.666Z,17.60
2018-07-15T04:59:18.821Z,17.30
2018-07-15T05:01:46.958Z,17.20
2018-07-15T05:04:15.111Z,17.00
2018-07-15T05:06:43.962Z,17.00
2018-07-15T05:09:12.108Z,17.00
2018-07-15T05:11:40.266Z,17.10
2018-07-15T05:14:08.713Z,17.10
2018-07-15T05:16:37.162Z,17.20
2018-07-15T05:19:05.347Z,17.20
2018-07-15T05:21:33.478Z,17.60
2018-07-15T05:24:01.645Z,18.30
2018-07-15T05:26:29.821Z,18.70
2018-07-15T05:28:58.044Z,19.10
2018-07-15T05:31:26.297Z,19.40
2018-07-15T05:33:54.438Z,19.60
2018-07-15T05:36:29.381Z,19.80
2018-07-15T05:38:58.197Z,19.80
2018-07-15T05:41:26.349Z,20.30
2018-07-15T05:43:55.570Z,20.80
2018-07-15T05:48:52.284Z,21.00
2018-07-15T05:51:20.613Z,21.20
2018-07-15T05:53:48.741Z,21.50
2018-07-15T05:56:16.885Z,21.70
2018-07-15T05:58:45.031Z,22.30
2018-07-15T06:01:13.238Z,23.00
2018-07-15T06:03:41.385Z,23.30
2018-07-15T06:06:09.516Z,23.30
2018-07-15T06:08:37.654Z,23.40
2018-07-15T06:11:06.120Z,23.50
2018-07-15T06:13:34.253Z,24.30
2018-07-15T06:16:02.396Z,24.90
2018-07-15T06:18:30.548Z,25.70
2018-07-15T06:20:58.692Z,25.60
2018-07-15T06:23:26.829Z,25.70
2018-07-15T06:25:54.970Z,25.90
2018-07-15T06:28:23.107Z,26.40
2018-07-15T06:30:51.257Z,27.50
2018-07-15T06:33:19.389Z,28.30
2018-07-15T06:35:47.532Z,27.80
2018-07-15T06:38:15.669Z,28.10
2018-07-15T06:40:43.813Z,28.20
2018-07-15T06:43:12.022Z,27.30
2018-07-15T06:45:40.183Z,27.10
2018-07-15T06:48:08.321Z,28.10
2018-07-15T06:50:36.520Z,27.90
2018-07-15T06:53:04.694Z,28.20
2018-07-15T06:55:32.861Z,28.00
2018-07-15T06:58:00.977Z,28.40
2018-07-15T07:00:29.134Z,28.30
2018-07-15T07:02:57.260Z,28.50
2018-07-15T07:05:25.398Z,28.40
2018-07-15T07:07:53.642Z,28.50
2018-07-15T07:10:21.758Z,28.10
2018-07-15T07:12:49.925Z,28.90
2018-07-15T07:15:18.055Z,29.40
2018-07-15T07:17:46.190Z,28.90
2018-07-15T07:20:14.289Z,28.00
2018-07-15T07:22:42.403Z,28.70
2018-07-15T07:25:10.527Z,29.20
2018-07-15T07:27:38.646Z,29.40
2018-07-15T07:30:06.775Z,28.80
2018-07-15T07:32:34.903Z,28.50
2018-07-15T07:35:03.045Z,29.10
2018-07-15T07:37:31.186Z,28.90
2018-07-15T07:39:59.323Z,30.10
2018-07-15T07:42:27.511Z,30.50
2018-07-15T07:44:55.668Z,30.00
2018-07-15T07:47:23.818Z,30.10
2018-07-15T07:49:52.817Z,30.10
2018-07-15T07:52:21.001Z,30.20
2018-07-15T07:54:49.121Z,30.40
2018-07-15T07:57:17.258Z,28.60
2018-07-15T07:59:45.424Z,28.00
2018-07-15T08:02:13.561Z,28.30
2018-07-15T08:04:41.707Z,28.70
2018-07-15T08:07:09.867Z,28.20
2018-07-15T08:09:37.992Z,28.00
2018-07-15T08:12:06.141Z,28.50
2018-07-15T08:14:34.276Z,28.70
2018-07-15T08:17:02.397Z,28.50
2018-07-15T08:19:30.530Z,28.30
2018-07-15T08:21:58.660Z,28.20
2018-07-15T08:24:26.838Z,28.30
2018-07-15T08:26:54.970Z,27.40
2018-07-15T08:29:23.094Z,26.70
2018-07-15T08:31:51.221Z,27.30
2018-07-15T08:34:19.370Z,28.00
2018-07-15T08:36:47.495Z,27.40
2018-07-15T08:39:15.637Z,28.00
2018-07-15T08:41:43.788Z,27.00
2018-07-15T08:44:11.917Z,26.70
2018-07-15T08:46:40.054Z,27.80
2018-07-15T08:49:08.198Z,27.60
2018-07-15T08:51:36.338Z,28.50
2018-07-15T08:54:04.491Z,27.60
2018-07-15T08:56:32.645Z,27.80
2018-07-15T08:59:00.775Z,29.60
2018-07-15T09:01:28.888Z,29.30
2018-07-15T09:03:57.034Z,30.30
2018-07-15T09:06:25.150Z,30.70
2018-07-15T09:08:53.268Z,31.00
2018-07-15T09:11:21.405Z,30.80
2018-07-15T09:13:49.635Z,31.20
2018-07-15T09:16:17.745Z,31.30
2018-07-15T09:18:46.090Z,29.60
2018-07-15T09:21:14.885Z,31.20
2018-07-15T09:23:42.957Z,30.90
2018-07-15T09:26:11.075Z,32.40
2018-07-15T09:28:39.283Z,31.70
2018-07-15T09:31:07.437Z,32.00
2018-07-15T09:33:36.089Z,32.80
2018-07-15T09:36:04.273Z,33.50
2018-07-15T09:38:32.387Z,33.80
2018-07-15T09:41:00.563Z,33.80
2018-07-15T09:43:28.690Z,33.30
2018-07-15T09:54:52.709Z,31.30
2018-07-15T09:57:20.845Z,31.20
2018-07-15T09:59:49.171Z,32.50
2018-07-15T10:02:17.401Z,32.60
2018-07-15T10:04:45.799Z,32.20
2018-07-15T10:07:13.897Z,33.70
2018-07-15T10:09:42.035Z,34.10
2018-07-15T10:12:10.198Z,31.70
2018-07-15T10:14:38.333Z,32.90
2018-07-15T10:17:06.466Z,33.40
2018-07-15T10:19:34.626Z,35.00
2018-07-15T10:22:02.834Z,34.20
2018-07-15T10:24:30.990Z,33.80
2018-07-15T10:26:59.186Z,34.40
2018-07-15T10:29:27.339Z,34.30
2018-07-15T10:31:55.522Z,33.40
2018-07-15T10:34:23.645Z,34.10
2018-07-15T10:36:51.850Z,32.30
2018-07-15T10:39:20.022Z,31.90
2018-07-15T10:41:48.270Z,30.30
2018-07-15T10:44:25.162Z,31.40
2018-07-15T10:46:53.340Z,31.70
2018-07-15T10:49:21.490Z,31.40
2018-07-15T10:51:49.630Z,30.80
2018-07-15T10:54:17.774Z,30.30
2018-07-15T10:56:45.940Z,30.30
2018-07-15T10:59:14.078Z,30.60
2018-07-15T11:01:42.238Z,30.50
2018-07-15T11:04:10.377Z,30.00
2018-07-15T11:06:38.547Z,30.60
2018-07-15T11:09:07.612Z,30.40
2018-07-15T11:11:35.807Z,30.00
2018-07-15T11:14:03.964Z,29.80
2018-07-15T11:16:32.263Z,30.10
2018-07-15T11:19:00.457Z,29.90
2018-07-15T11:21:28.695Z,30.00
2018-07-15T11:23:56.878Z,29.80
2018-07-15T11:26:25.043Z,29.70
2018-07-15T11:28:53.189Z,29.50
2018-07-15T11:31:21.359Z,29.30
2018-07-15T11:33:49.553Z,29.10
2018-07-15T11:36:17.686Z,29.00
2018-07-15T11:41:13.750Z,28.70
2018-07-15T11:43:41.891Z,28.80
2018-07-15T11:46:10.045Z,28.60
2018-07-15T11:48:38.190Z,28.60
2018-07-15T11:51:06.360Z,28.60
2018-07-15T11:53:34.502Z,28.40
2018-07-15T11:56:02.640Z,28.30
2018-07-15T11:58:30.778Z,28.20
2018-07-15T12:00:58.905Z,28.10
2018-07-15T12:05:54.947Z,27.90
2018-07-15T12:08:23.069Z,27.70
2018-07-15T12:10:51.198Z,27.60
2018-07-15T12:13:19.341Z,27.30
2018-07-15T12:15:47.454Z,27.20
2018-07-15T12:18:15.583Z,27.10
2018-07-15T12:20:43.712Z,27.00
2018-07-15T12:23:11.839Z,26.90
2018-07-15T12:25:39.969Z,26.70
2018-07-15T12:28:08.126Z,26.30
2018-07-15T12:30:36.206Z,25.90
2018-07-15T12:33:04.331Z,25.60
2018-07-15T12:35:32.473Z,25.50
2018-07-15T12:38:00.630Z,25.20
2018-07-15T12:40:28.754Z,25.10
2018-07-15T12:42:56.893Z,24.80
2018-07-15T12:45:25.062Z,24.60
2018-07-15T12:47:53.274Z,24.50
2018-07-15T12:50:21.425Z,24.30
2018-07-15T12:52:49.585Z,23.80
2018-07-15T12:55:17.807Z,23.70
2018-07-15T12:57:45.966Z,23.10
2018-07-15T13:00:14.141Z,22.80
2018-07-15T13:02:42.317Z,22.90
2018-07-15T13:05:10.486Z,22.80
2018-07-15T13:07:38.620Z,23.50
2018-07-15T13:10:06.757Z,24.50
2018-07-15T13:12:34.979Z,25.10
2018-07-15T13:15:03.118Z,25.00
2018-07-15T13:17:31.244Z,24.60
2018-07-15T13:19:59.463Z,24.40
2018-07-15T13:22:27.597Z,24.50
2018-07-15T13:24:55.734Z,23.90
2018-07-15T13:27:23.875Z,24.60
2018-07-15T13:29:52.011Z,25.80
2018-07-15T13:32:20.149Z,25.00
2018-07-15T13:34:48.334Z,24.70
2018-07-15T13:37:16.469Z,25.40
2018-07-15T13:39:44.595Z,25.40
2018-07-15T13:42:12.742Z,25.60
2018-07-15T13:44:40.947Z,25.80
2018-07-15T13:47:09.064Z,26.30
2018-07-15T13:49:37.186Z,26.40
2018-07-15T13:52:05.306Z,25.50
2018-07-15T13:54:33.429Z,25.20
2018-07-15T13:57:01.570Z,25.80
2018-07-15T13:59:29.742Z,25.90
2018-07-15T14:01:57.893Z,25.80
2018-07-15T14:04:26.018Z,25.70
2018-07-15T14:06:54.343Z,25.70
2018-07-15T14:09:22.476Z,25.40
2018-07-15T14:11:50.682Z,25.30
2018-07-15T14:14:18.889Z,25.10
2018-07-15T14:16:47.041Z,24.70
2018-07-15T14:19:15.182Z,24.50
2018-07-15T14:21:43.338Z,24.40
2018-07-15T14:24:11.489Z,24.60
2018-07-15T14:26:39.670Z,24.70
2018-07-15T14:29:07.810Z,25.20
2018-07-15T14:31:35.950Z,25.30
2018-07-15T14:34:04.094Z,25.60
2018-07-15T14:36:32.235Z,25.20
2018-07-15T14:39:00.382Z,25.30
2018-07-15T14:41:28.521Z,25.00
2018-07-15T14:43:56.664Z,25.00
2018-07-15T14:46:24.810Z,24.80
2018-07-15T14:48:52.946Z,24.80
2018-07-15T14:53:49.014Z,24.90
2018-07-15T14:56:17.193Z,25.20
2018-07-15T14:58:45.351Z,25.40
2018-07-15T15:01:13.582Z,25.10
2018-07-15T15:03:41.718Z,25.30
2018-07-15T15:06:09.865Z,25.10
2018-07-15T15:08:37.990Z,25.20
2018-07-15T15:11:06.237Z,25.00
2018-07-15T15:13:34.346Z,25.20
2018-07-15T15:16:02.487Z,24.90
2018-07-15T15:18:30.605Z,24.80
2018-07-15T15:20:58.734Z,24.80
2018-07-15T15:23:26.859Z,24.70
2018-07-15T15:25:54.995Z,24.60
2018-07-15T15:28:23.143Z,24.90
2018-07-15T15:30:51.335Z,24.90
2018-07-15T15:33:19.480Z,24.90
2018-07-15T15:35:47.592Z,24.90
2018-07-15T15:38:15.720Z,25.10
2018-07-15T15:40:43.937Z,25.00
2018-07-15T15:43:12.066Z,24.90
2018-07-15T15:45:40.190Z,24.90
2018-07-15T15:48:08.324Z,24.90
2018-07-15T15:50:36.438Z,24.90
2018-07-15T15:53:04.580Z,25.00
2018-07-15T15:55:32.861Z,25.20
2018-07-15T15:58:01.047Z,25.20
2018-07-15T16:00:29.101Z,25.10
2018-07-15T16:02:57.242Z,25.10
2018-07-15T16:05:25.376Z,25.10
2018-07-15T16:07:53.536Z,25.20
2018-07-15T16:10:21.757Z,25.20
2018-07-15T16:12:49.907Z,25.20
2018-07-15T16:15:18.043Z,25.30
2018-07-15T16:17:46.165Z,25.00
2018-07-15T16:20:14.361Z,25.00
2018-07-15T16:22:42.492Z,25.00
2018-07-15T16:25:10.630Z,25.10
2018-07-15T16:27:38.784Z,25.20
2018-07-15T16:30:07.081Z,25.10
2018-07-15T16:32:35.279Z,25.10
2018-07-15T16:35:03.443Z,25.00
2018-07-15T16:37:31.581Z,24.90
2018-07-15T16:39:59.698Z,25.00
2018-07-15T16:42:27.865Z,24.80
2018-07-15T16:44:56.046Z,24.70
2018-07-15T16:47:24.234Z,24.50
2018-07-15T16:49:52.441Z,24.50
2018-07-15T16:52:20.538Z,24.40
2018-07-15T16:54:48.660Z,24.40
2018-07-15T16:57:16.815Z,24.30
2018-07-15T16:59:44.969Z,24.40
2018-07-15T17:02:13.125Z,24.30
2018-07-15T17:04:41.410Z,24.30
2018-07-15T17:07:09.566Z,24.20
2018-07-15T17:09:37.746Z,24.20
2018-07-15T17:12:06.141Z,24.20
2018-07-15T17:14:34.280Z,24.20
2018-07-15T17:17:02.465Z,24.20
2018-07-15T17:19:30.672Z,24.20
2018-07-15T17:21:58.817Z,24.20
2018-07-15T17:24:27.021Z,24.30
2018-07-15T17:26:55.199Z,24.20
2018-07-15T17:29:23.491Z,24.10
2018-07-15T17:31:51.678Z,24.10
2018-07-15T17:34:19.844Z,24.00
2018-07-15T17:36:48.002Z,23.80
2018-07-15T17:39:16.482Z,23.70
2018-07-15T17:41:44.623Z,23.70
2018-07-15T17:44:12.797Z,23.60
2018-07-15T17:46:40.925Z,23.50
2018-07-15T17:49:09.075Z,23.40
2018-07-15T17:51:37.238Z,23.30
2018-07-15T17:54:05.459Z,23.30
2018-07-15T17:56:33.610Z,23.30
2018-07-15T17:59:02.572Z,23.20
2018-07-15T18:01:30.715Z,23.20
2018-07-15T18:03:58.877Z,23.00
2018-07-15T18:06:27.010Z,23.10
2018-07-15T18:08:55.152Z,23.00
2018-07-15T18:11:23.312Z,23.00
2018-07-15T18:13:51.449Z,23.00
2018-07-15T18:16:19.745Z,23.00
2018-07-15T18:18:47.874Z,23.00
2018-07-15T18:21:16.026Z,23.00
2018-07-15T18:23:44.169Z,23.10
2018-07-15T18:26:12.298Z,23.10
2018-07-15T18:28:40.425Z,23.00
2018-07-15T18:31:08.569Z,23.00
2018-07-15T18:33:36.689Z,22.90
2018-07-15T18:36:04.850Z,22.80
2018-07-15T18:38:33.117Z,22.60
2018-07-15T18:41:01.279Z,22.40
2018-07-15T18:43:29.487Z,22.30
2018-07-15T18:45:57.574Z,22.20
2018-07-15T18:48:29.748Z,22.10
2018-07-15T18:50:57.927Z,22.00
2018-07-15T18:53:26.075Z,22.00
2018-07-15T18:55:54.197Z,22.00
2018-07-15T18:58:22.333Z,21.90
2018-07-15T19:00:50.488Z,21.90
2018-07-15T19:03:18.838Z,21.80
2018-07-15T19:05:47.004Z,21.80
2018-07-15T19:08:15.158Z,21.80
2018-07-15T19:10:43.769Z,21.70
2018-07-15T19:13:12.416Z,21.70
2018-07-15T19:15:40.554Z,21.70
2018-07-15T19:18:08.746Z,21.60
2018-07-15T19:20:36.830Z,21.60
2018-07-15T19:23:04.971Z,21.40
2018-07-15T19:25:33.119Z,21.30
2018-07-15T19:28:01.365Z,21.10
2018-07-15T19:30:29.543Z,20.90
2018-07-15T19:32:57.690Z,20.80
2018-07-15T19:35:25.833Z,20.70
2018-07-15T19:37:53.979Z,20.50
2018-07-15T19:40:22.115Z,20.40
2018-07-15T19:42:50.258Z,20.30
2018-07-15T19:45:18.397Z,20.10
2018-07-15T19:47:46.549Z,20.10
2018-07-15T19:50:14.722Z,20.00
2018-07-15T19:52:42.876Z,19.90
2018-07-15T19:55:11.013Z,19.90
2018-07-15T19:57:39.168Z,19.70
2018-07-15T20:00:07.475Z,19.70
2018-07-15T20:02:35.594Z,19.60
2018-07-15T20:05:03.716Z,19.50
2018-07-15T20:07:31.881Z,19.50
2018-07-15T20:10:00.004Z,19.50
2018-07-15T20:12:28.126Z,19.40
2018-07-15T20:14:56.297Z,19.40
2018-07-15T20:17:24.549Z,19.40
2018-07-15T20:19:52.725Z,19.40
2018-07-15T20:22:20.842Z,19.40
2018-07-15T20:24:48.964Z,19.40
2018-07-15T20:27:17.083Z,19.30
2018-07-15T20:29:45.210Z,19.30
2018-07-15T20:32:13.381Z,19.10
2018-07-15T20:34:41.529Z,18.90
2018-07-15T20:37:09.654Z,18.60
2018-07-15T20:39:37.794Z,18.50
2018-07-15T20:42:05.994Z,18.50
2018-07-15T20:44:34.134Z,18.50
2018-07-15T20:47:02.270Z,18.50
2018-07-15T20:49:30.393Z,18.50
2018-07-15T20:51:58.505Z,18.60
2018-07-15T20:54:26.675Z,18.70
2018-07-15T20:56:54.801Z,18.70
2018-07-15T20:59:22.957Z,18.80
2018-07-15T21:01:51.058Z,18.80
2018-07-15T21:04:19.202Z,18.80
2018-07-15T21:06:47.397Z,18.40
2018-07-15T21:09:15.517Z,18.40
2018-07-15T21:11:43.645Z,18.30
2018-07-15T21:14:11.773Z,18.20
2018-07-15T21:16:39.897Z,18.20
2018-07-15T21:19:08.063Z,18.00
2018-07-15T21:21:36.157Z,18.10
2018-07-15T21:24:04.289Z,18.20
2018-07-15T21:26:32.441Z,18.30
2018-07-15T21:29:00.557Z,18.40
2018-07-15T21:31:28.750Z,18.50
2018-07-15T21:33:56.820Z,18.50
2018-07-15T21:36:24.945Z,18.60
2018-07-15T21:38:53.070Z,18.60
2018-07-15T21:41:21.250Z,18.60
2018-07-15T21:43:49.492Z,18.50
2018-07-15T21:46:23.333Z,18.50
2018-07-15T21:48:51.456Z,18.50
2018-07-15T21:51:19.645Z,18.50
2018-07-15T21:53:47.750Z,18.50
2018-07-15T21:56:15.855Z,18.40
2018-07-15T21:58:43.984Z,18.30
2018-07-15T22:01:12.114Z,18.20
2018-07-15T22:03:40.241Z,18.20
2018-07-15T22:06:18.373Z,18.20
2018-07-15T22:08:57.950Z,18.30
2018-07-15T22:11:26.075Z,18.50
2018-07-15T22:13:54.204Z,18.60
2018-07-15T22:16:22.333Z,18.50
2018-07-15T22:18:50.469Z,18.50
2018-07-15T22:21:18.615Z,18.60
2018-07-15T22:23:46.714Z,18.70
2018-07-15T22:26:14.850Z,18.60
2018-07-15T22:28:42.953Z,18.60
2018-07-15T22:31:11.137Z,18.60
2018-07-15T22:33:39.218Z,18.70
2018-07-15T22:36:07.707Z,18.90
2018-07-15T22:38:35.821Z,18.90
2018-07-15T22:41:04.085Z,18.90
2018-07-15T22:43:32.206Z,19.00
2018-07-15T22:46:00.325Z,19.00
2018-07-15T22:48:28.620Z,19.00
2018-07-15T22:50:56.812Z,18.90
2018-07-15T22:53:25.150Z,18.70
2018-07-15T22:55:53.263Z,18.70
2018-07-15T22:58:21.405Z,18.70
2018-07-15T23:00:49.538Z,18.60
2018-07-15T23:03:17.666Z,18.50
2018-07-15T23:05:58.138Z,18.50
2018-07-15T23:08:27.429Z,18.50
2018-07-15T23:10:55.583Z,18.50
2018-07-15T23:13:23.738Z,18.50
2018-07-15T23:15:52.157Z,18.50
2018-07-15T23:18:20.340Z,18.40
2018-07-15T23:20:49.125Z,18.40
2018-07-15T23:23:17.359Z,18.30
2018-07-15T23:25:45.549Z,18.20
2018-07-15T23:28:14.770Z,18.20
2018-07-15T23:30:43.250Z,18.20
2018-07-15T23:33:12.229Z,18.10
2018-07-15T23:35:40.392Z,18.00
2018-07-15T23:38:08.521Z,17.90
2018-07-15T23:40:36.677Z,17.90
2018-07-15T23:43:05.121Z,17.80
2018-07-15T23:45:34.144Z,17.80
2018-07-15T23:48:02.282Z,17.80
2018-07-15T23:50:30.422Z,17.70
2018-07-15T23:52:58.548Z,17.80
2018-07-15T23:55:26.690Z,17.70
2018-07-15T23:57:54.966Z,17.50
